METAR Data
IDs: Format: Raw Decoded Include TAF

Data at: 0029 UTC 25 Apr 2019

PARY 242356Z AUTO 31005KT 10SM FEW080 OVC120 03/M10 A3011 RMK AO2 SLP225 T00281100 10033 21022 53005
PARY 242256Z AUTO VRB04KT 10SM OVC080 03/M09 A3010 RMK AO2 SLP222 T00281094
PARY 242156Z AUTO VRB05KT 10SM SCT080 OVC120 02/M09 A3010 RMK AO2 SLP221 T00171094 FZRANO
PARY 242056Z AUTO 00000KT 10SM BKN075 OVC110 01/M09 A3009 RMK AO2 SLP220 T00111089 51008 FZRANO
PARY 241956Z AUTO 31004KT 10SM SCT075 OVC090 00/M09 A3009 RMK AO2 SLP220 T00001089 FZRANO
PARY 241856Z AUTO VRB05KT 10SM OVC085 M01/M09 A3008 RMK AO2 SLP215 T10111094 FZRANO
PARY 241756Z AUTO 26006KT 10SM BKN090 OVC110 M02/M09 A3007 RMK AO2 SLP213 T10221094 11022 21050 52012 FZRANO
PARY 241656Z AUTO VRB03KT 10SM BKN100 M04/M10 A3006 RMK AO2 SLP210 T10391100 FZRANO
PARY 241556Z AUTO 29003KT 10SM SCT070 OVC095 M04/M10 A3004 RMK AO2 SLP204 T10441100 FZRANO
PARY 241456Z AUTO VRB03KT 10SM OVC095 M04/M10 A3003 RMK AO2 SLP201 T10391100 51010 FZRANO
PARY 241356Z AUTO 26005KT 10SM OVC100 M04/M11 A3002 RMK AO2 SLP198 T10441106 FZRANO
PARY 241256Z AUTO 27004KT 10SM FEW070 BKN095 OVC120 M04/M11 A3002 RMK AO2 SLP195 T10391106 FZRANO
PARY 241156Z AUTO 26004KT 10SM BKN095 M04/M11 A3000 RMK AO2 SLP190 70001 T10391106 11006 21039 51018 FZRANO
PARY 241056Z AUTO VRB03KT 10SM CLR M03/M11 A2999 RMK AO2 SLP188 T10331106 FZRANO
PARY 240956Z AUTO 26004KT 10SM BKN085 OVC110 M03/M10 A2997 RMK AO2 SLP181 T10281100 FZRANO
PARY 240856Z AUTO 26006KT 10SM BKN090 M02/M10 A2995 RMK AO2 SLP172 T10221100 53018 FZRANO
PARY 240756Z AUTO 21004KT 10SM OVC085 M02/M11 A2993 RMK AO2 SLP166 T10221106 400111044 FZRANO
PARY 240656Z AUTO 24006KT 10SM BKN085 OVC100 M02/M09 A2991 RMK AO2 SLP159 T10171094 FZRANO
PARY 240556Z AUTO 25005KT 10SM OVC090 M01/M09 A2989 RMK AO2 SLP153 T10061089 10011 21006 53017 FZRANO
PARY 240456Z AUTO 25006KT 10SM BKN090 00/M09 A2987 RMK AO2 SLP146 T00001089 FZRANO
PARY 240356Z AUTO 25006KT 10SM OVC075 01/M09 A2986 RMK AO2 SLP140 T00061094 FZRANO
PARY 240256Z AUTO 25009KT 10SM BKN065 OVC085 01/M09 A2984 RMK AO2 SLP135 T00061094 53015 FZRANO
PARY 240156Z AUTO 25009KT 240V300 10SM BKN080 01/M08 A2982 RMK AO2 SLP128 T00111083 FZRANO
PARY 240056Z AUTO 26008KT 10SM OVC070 01/M08 A2981 RMK AO2 SLP123 T00061078 FZRANO
PARY 240035Z AUTO 24008KT 10SM SCT028 BKN050 OVC070 01/M07 A2980 RMK AO2 FZRANO
PARY 232356Z AUTO VRB06KT 10SM BKN021 BKN030 OVC040 00/M06 A2980 RMK AO2 UPB17E36SNE17 SLP119 P0000 60000 T00001056 10000 21039 53010 FZRANO
PARY 232256Z AUTO 28006KT 5SM -SN BKN015 OVC020 M02/M05 A2978 RMK AO2 SLP116 P0000 T10171050 FZRANO
PARY 232240Z AUTO VRB05KT 3SM -SN OVC012 M02/M05 A2978 RMK AO2 P0000 FZRANO
PARY 232219Z AUTO 27005KT 2SM -SN OVC014 M02/M05 A2978 RMK AO2 P0000 FZRANO
PARY 232212Z AUTO 26005KT 2SM -SN OVC016 M02/M05 A2977 RMK AO2 P0000 FZRANO
PARY 232156Z AUTO 26004KT 2 1/2SM -SN OVC014 M02/M05 A2977 RMK AO2 SLP111 P0000 T10221050 FZRANO
PARY 232152Z AUTO 22008KT 2SM -SN OVC014 M02/M06 A2977 RMK AO2 P0000 FZRANO
PARY 232132Z AUTO VRB05KT 1 1/2SM -SN BR OVC014 M03/M05 A2976 RMK AO2 P0000 FZRANO
PARY 232056Z AUTO 26006KT 2SM -SN OVC014 M03/M06 A2975 RMK AO2 SNB02 SLP102 P0000 60000 T10281056 51017 FZRANO
PARY 232053Z AUTO 26006KT 2SM -SN OVC014 M03/M06 A2974 RMK AO2 SNB02 P0000 FZRANO
PARY 231956Z AUTO 22007KT 9SM OVC014 M03/M07 A2972 RMK AO2 SNE55 SLP094 P0000 T10331067 FZRANO
PARY 231856Z AUTO 23007KT 9SM -SN OVC014 M03/M07 A2969 RMK AO2 SLP084 P0000 T10331067 FZRANO
PARY 231756Z AUTO 22009KT 9SM -SN OVC012 M04/M07 A2967 RMK AO2 SLP076 P0000 60001 T10391067 11028 21044 53019 FZRANO
PARY 231708Z AUTO VRB04KT 5SM -SN BR OVC012 M04/M06 A2965 RMK AO2 P0000 FZRANO
PARY 231656Z AUTO 22006KT 4SM -SN BR BKN009 OVC016 M04/M06 A2965 RMK AO2 CIG 008V012 SLP068 P0000 T10391061 FZRANO
PARY 231622Z AUTO 21005KT 4SM -SN BR BKN009 BKN016 OVC026 M04/M06 A2963 RMK AO2 CIG 007V011 P0000 FZRANO
PARY 231556Z AUTO 20005KT 2 1/2SM -SN BR BKN009 BKN015 OVC026 M04/M06 A2962 RMK AO2 VIS 1 3/4V3 CIG 006V012 SLP057 P0000 T10441061 FZRANO
PARY 231551Z AUTO 21004KT 2 1/2SM -SN BR BKN009 BKN015 OVC026 M04/M06 A2961 RMK AO2 VIS 1 3/4V3 CIG 006V012 P0000 FZRANO
PARY 231536Z AUTO VRB05KT 2 1/2SM -SN BR SCT009 BKN015 OVC029 M04/M06 A2961 RMK AO2 P0000 FZRANO
PARY 231531Z AUTO 20004KT 2SM -SN BR BKN009 BKN015 OVC029 M04/M06 A2960 RMK AO2 CIG 006V011 P0000 FZRANO
PARY 231526Z AUTO 19005KT 2SM -SN BR SCT010 BKN015 OVC029 M04/M06 A2960 RMK AO2 P0000 FZRANO
PARY 231522Z AUTO 21005KT 1 3/4SM -SN BR FEW006 BKN010 OVC029 M04/M06 A2960 RMK AO2 CIG 008V012 P0000 FZRANO
PARY 231511Z AUTO VRB04KT 1 1/2SM -SN BR BKN008 OVC026 M04/M06 A2959 RMK AO2 CIG 006V012 P0000 FZRANO
PARY 231506Z AUTO 21005KT 1 3/4SM -SN BR BKN010 BKN030 OVC037 M04/M06 A2959 RMK AO2 CIG 006V012 P0000 FZRANO
PARY 231454Z AUTO 22004KT 2SM -SN BR FEW006 BKN010 OVC035 M04/M06 A2959 RMK AO2 SLP050 P0000 60001 T10391056 51028 FZRANO
PARY 231453Z AUTO 21004KT 2SM -SN BR FEW006 BKN010 OVC035 M04/M06 A2959 RMK AO2 P0000 FZRANO
PARY 231434Z AUTO 22004KT 1 1/4SM -SN BR FEW006 BKN030 OVC035 M04/M06 A2958 RMK AO2 P0000 FZRANO
PARY 231426Z AUTO VRB03KT 1 3/4SM -SN BR FEW010 BKN030 OVC035 M04/M05 A2958 RMK AO2 P0000 FZRANO
PARY 231417Z AUTO 22004KT 2 1/2SM -SN BR FEW010 SCT017 OVC029 M04/M06 A2957 RMK AO2 VIS 2V3 P0000 FZRANO
PARY 231356Z AUTO VRB03KT 4SM -SN BR BKN010 OVC017 M03/M06 A2957 RMK AO2 CIG 007V013 SLP042 P0001 T10331056 FZRANO
PARY 231348Z AUTO 22003KT 5SM -SN BR BKN010 OVC017 M03/M05 A2956 RMK AO2 CIG 006V013 P0001 FZRANO
PARY 231336Z AUTO 23005KT 4SM -SN BR OVC008 M03/M05 A2956 RMK AO2 CIG 006V012 P0001 FZRANO
PARY 231256Z AUTO 24006KT 3SM -SN BR M03/M05 A2953 RMK AO2 SLP031 P0000 T10331050 FZRANO
PARY 231233Z AUTO 24007KT 3SM -SN BR M03/M04 A2952 RMK AO2 P0000 FZRANO $